sensor_id;sensor_type;location;lat;lon;timestamp;pressure;altitude;pressure_sealevel;temperature;humidity
51468;BME280;37545;45.302;-122.946;2023-04-16T00:01:22;101232.22;;;16.12;47.87
51468;BME280;37545;45.302;-122.946;2023-04-16T00:03:50;101242.75;;;16.17;46.10
51468;BME280;37545;45.302;-122.946;2023-04-16T00:06:19;101241.03;;;16.21;45.21
51468;BME280;37545;45.302;-122.946;2023-04-16T00:08:48;101245.19;;;16.06;46.00
51468;BME280;37545;45.302;-122.946;2023-04-16T00:11:17;101236.56;;;16.12;44.81
51468;BME280;37545;45.302;-122.946;2023-04-16T00:13:45;101241.88;;;16.18;45.12
51468;BME280;37545;45.302;-122.946;2023-04-16T00:16:16;101247.69;;;15.97;43.53
51468;BME280;37545;45.302;-122.946;2023-04-16T00:18:45;101250.19;;;15.91;44.36
51468;BME280;37545;45.302;-122.946;2023-04-16T00:21:13;101240.47;;;15.81;45.65
51468;BME280;37545;45.302;-122.946;2023-04-16T00:23:42;101250.94;;;15.84;46.64
51468;BME280;37545;45.302;-122.946;2023-04-16T00:26:10;101244.63;;;15.71;46.04
51468;BME280;37545;45.302;-122.946;2023-04-16T00:28:39;101247.03;;;15.59;45.60
51468;BME280;37545;45.302;-122.946;2023-04-16T00:31:08;101240.81;;;15.52;45.32
51468;BME280;37545;45.302;-122.946;2023-04-16T00:33:38;101238.25;;;15.55;46.05
51468;BME280;37545;45.302;-122.946;2023-04-16T00:36:07;101230.50;;;15.60;46.14
51468;BME280;37545;45.302;-122.946;2023-04-16T00:38:36;101226.06;;;15.54;45.91
51468;BME280;37545;45.302;-122.946;2023-04-16T00:41:05;101227.78;;;15.52;46.04
51468;BME280;37545;45.302;-122.946;2023-04-16T00:43:33;101226.78;;;15.45;46.46
51468;BME280;37545;45.302;-122.946;2023-04-16T00:46:09;101223.16;;;15.36;46.10
51468;BME280;37545;45.302;-122.946;2023-04-16T00:48:41;101222.13;;;15.27;46.49
51468;BME280;37545;45.302;-122.946;2023-04-16T00:51:11;101215.06;;;15.20;47.48
51468;BME280;37545;45.302;-122.946;2023-04-16T00:53:39;101213.19;;;15.13;48.50
51468;BME280;37545;45.302;-122.946;2023-04-16T00:56:09;101210.50;;;15.08;48.76
51468;BME280;37545;45.302;-122.946;2023-04-16T00:58:38;101206.06;;;15.03;49.33
51468;BME280;37545;45.302;-122.946;2023-04-16T01:01:07;101206.78;;;14.94;49.62
51468;BME280;37545;45.302;-122.946;2023-04-16T01:03:43;101206.66;;;14.88;49.72
51468;BME280;37545;45.302;-122.946;2023-04-16T01:06:13;101201.31;;;14.80;49.37
51468;BME280;37545;45.302;-122.946;2023-04-16T01:08:41;101207.38;;;14.81;50.18
51468;BME280;37545;45.302;-122.946;2023-04-16T01:11:10;101191.72;;;14.79;50.97
51468;BME280;37545;45.302;-122.946;2023-04-16T01:13:39;101197.78;;;14.78;51.17
51468;BME280;37545;45.302;-122.946;2023-04-16T01:16:09;101196.06;;;14.79;51.21
51468;BME280;37545;45.302;-122.946;2023-04-16T01:18:40;101192.53;;;14.77;52.26
51468;BME280;37545;45.302;-122.946;2023-04-16T01:21:10;101187.38;;;14.78;49.36
51468;BME280;37545;45.302;-122.946;2023-04-16T01:23:39;101193.41;;;14.77;49.82
51468;BME280;37545;45.302;-122.946;2023-04-16T01:26:07;101191.72;;;14.79;50.60
51468;BME280;37545;45.302;-122.946;2023-04-16T01:28:36;101190.72;;;14.71;49.00
51468;BME280;37545;45.302;-122.946;2023-04-16T01:31:05;101182.84;;;14.70;50.54
51468;BME280;37545;45.302;-122.946;2023-04-16T01:33:33;101179.44;;;14.72;50.58
51468;BME280;37545;45.302;-122.946;2023-04-16T01:36:02;101184.63;;;14.72;51.77
51468;BME280;37545;45.302;-122.946;2023-04-16T01:38:32;101193.22;;;14.68;50.81
51468;BME280;37545;45.302;-122.946;2023-04-16T01:41:01;101186.13;;;14.59;49.80
51468;BME280;37545;45.302;-122.946;2023-04-16T01:43:30;101184.41;;;14.60;50.67
51468;BME280;37545;45.302;-122.946;2023-04-16T01:46:11;101200.03;;;14.60;51.60
51468;BME280;37545;45.302;-122.946;2023-04-16T01:48:41;101191.25;;;14.55;50.91
51468;BME280;37545;45.302;-122.946;2023-04-16T01:51:10;101192.16;;;14.57;51.47
51468;BME280;37545;45.302;-122.946;2023-04-16T01:53:40;101188.78;;;14.62;55.79
51468;BME280;37545;45.302;-122.946;2023-04-16T01:56:09;101181.94;;;14.68;55.61
51468;BME280;37545;45.302;-122.946;2023-04-16T01:58:39;101188.16;;;14.74;54.51
51468;BME280;37545;45.302;-122.946;2023-04-16T02:01:08;101186.50;;;14.78;56.51
51468;BME280;37545;45.302;-122.946;2023-04-16T02:03:37;101174.38;;;14.81;53.95
51468;BME280;37545;45.302;-122.946;2023-04-16T02:06:05;101175.25;;;14.80;51.57
51468;BME280;37545;45.302;-122.946;2023-04-16T02:08:34;101168.22;;;14.76;50.15
51468;BME280;37545;45.302;-122.946;2023-04-16T02:11:04;101168.13;;;14.72;50.17
51468;BME280;37545;45.302;-122.946;2023-04-16T02:13:33;101163.69;;;14.66;49.93
51468;BME280;37545;45.302;-122.946;2023-04-16T02:16:08;101163.63;;;14.63;50.53
51468;BME280;37545;45.302;-122.946;2023-04-16T02:18:36;101165.41;;;14.64;51.35
51468;BME280;37545;45.302;-122.946;2023-04-16T02:21:05;101161.00;;;14.63;50.65
51468;BME280;37545;45.302;-122.946;2023-04-16T02:23:34;101161.00;;;14.61;50.55
51468;BME280;37545;45.302;-122.946;2023-04-16T02:26:05;101152.25;;;14.58;50.42
51468;BME280;37545;45.302;-122.946;2023-04-16T02:28:33;101143.56;;;14.57;52.11
51468;BME280;37545;45.302;-122.946;2023-04-16T02:31:02;101142.69;;;14.57;51.80
51468;BME280;37545;45.302;-122.946;2023-04-16T02:33:31;101149.63;;;14.58;50.83
51468;BME280;37545;45.302;-122.946;2023-04-16T02:36:01;101146.16;;;14.59;51.26
51468;BME280;37545;45.302;-122.946;2023-04-16T02:38:29;101138.41;;;14.60;51.91
51468;BME280;37545;45.302;-122.946;2023-04-16T02:40:58;101139.25;;;14.59;50.23
51468;BME280;37545;45.302;-122.946;2023-04-16T02:43:28;101137.53;;;14.60;50.22
51468;BME280;37545;45.302;-122.946;2023-04-16T02:45:57;101138.34;;;14.59;50.26
51468;BME280;37545;45.302;-122.946;2023-04-16T02:48:26;101142.69;;;14.57;50.69
51468;BME280;37545;45.302;-122.946;2023-04-16T02:50:54;101149.59;;;14.55;50.89
51468;BME280;37545;45.302;-122.946;2023-04-16T02:53:23;101146.03;;;14.53;50.77
51468;BME280;37545;45.302;-122.946;2023-04-16T02:55:52;101140.75;;;14.50;51.16
51468;BME280;37545;45.302;-122.946;2023-04-16T02:58:22;101152.84;;;14.46;51.50
51468;BME280;37545;45.302;-122.946;2023-04-16T03:00:53;101149.28;;;14.42;51.02
51468;BME280;37545;45.302;-122.946;2023-04-16T03:03:22;101145.78;;;14.39;51.19
51468;BME280;37545;45.302;-122.946;2023-04-16T03:05:51;101147.41;;;14.35;51.24
51468;BME280;37545;45.302;-122.946;2023-04-16T03:08:20;101149.09;;;14.32;51.31
51468;BME280;37545;45.302;-122.946;2023-04-16T03:10:49;101150.75;;;14.28;50.90
51468;BME280;37545;45.302;-122.946;2023-04-16T03:13:18;101152.41;;;14.24;51.24
51468;BME280;37545;45.302;-122.946;2023-04-16T03:15:48;101146.25;;;14.21;51.64
51468;BME280;37545;45.302;-122.946;2023-04-16T03:18:18;101144.44;;;14.17;52.11
51468;BME280;37545;45.302;-122.946;2023-04-16T03:20:51;101141.78;;;14.14;52.92
51468;BME280;37545;45.302;-122.946;2023-04-16T03:23:19;101143.38;;;14.09;52.67
51468;BME280;37545;45.302;-122.946;2023-04-16T03:25:47;101144.09;;;14.00;52.68
51468;BME280;37545;45.302;-122.946;2023-04-16T03:28:16;101137.88;;;13.93;53.54
51468;BME280;37545;45.302;-122.946;2023-04-16T03:30:50;101139.56;;;13.91;54.44
51468;BME280;37545;45.302;-122.946;2023-04-16T03:33:21;101142.06;;;13.87;54.94
51468;BME280;37545;45.302;-122.946;2023-04-16T03:35:55;101137.47;;;13.75;56.82
51468;BME280;37545;45.302;-122.946;2023-04-16T03:38:24;101139.84;;;13.66;58.09
51468;BME280;37545;45.302;-122.946;2023-04-16T03:40:53;101139.75;;;13.61;58.80
51468;BME280;37545;45.302;-122.946;2023-04-16T03:43:22;101141.34;;;13.56;59.17
51468;BME280;37545;45.302;-122.946;2023-04-16T03:45:50;101138.72;;;13.54;58.22
51468;BME280;37545;45.302;-122.946;2023-04-16T03:48:20;101148.28;;;13.55;58.51
51468;BME280;37545;45.302;-122.946;2023-04-16T03:50:49;101142.13;;;13.52;59.17
51468;BME280;37545;45.302;-122.946;2023-04-16T03:53:18;101140.25;;;13.46;58.59
51468;BME280;37545;45.302;-122.946;2023-04-16T03:55:49;101150.53;;;13.40;58.52
51468;BME280;37545;45.302;-122.946;2023-04-16T03:58:18;101153.78;;;13.33;59.02
51468;BME280;37545;45.302;-122.946;2023-04-16T04:00:47;101149.31;;;13.27;59.07
51468;BME280;37545;45.302;-122.946;2023-04-16T04:03:17;101159.53;;;13.21;58.71
51468;BME280;37545;45.302;-122.946;2023-04-16T04:05:47;101153.16;;;13.08;59.03
51468;BME280;37545;45.302;-122.946;2023-04-16T04:08:16;101166.22;;;13.11;59.55
51468;BME280;37545;45.302;-122.946;2023-04-16T04:10:44;101168.66;;;13.05;61.10
51468;BME280;37545;45.302;-122.946;2023-04-16T04:13:13;101168.50;;;12.99;61.16
51468;BME280;37545;45.302;-122.946;2023-04-16T04:15:42;101166.72;;;12.96;62.98
51468;BME280;37545;45.302;-122.946;2023-04-16T04:18:11;101175.28;;;12.94;62.29
51468;BME280;37545;45.302;-122.946;2023-04-16T04:20:40;101181.25;;;12.90;61.50
51468;BME280;37545;45.302;-122.946;2023-04-16T04:23:10;101178.41;;;12.81;61.85
51468;BME280;37545;45.302;-122.946;2023-04-16T04:25:39;101186.97;;;12.78;61.89
51468;BME280;37545;45.302;-122.946;2023-04-16T04:28:07;101194.75;;;12.76;63.03
51468;BME280;37545;45.302;-122.946;2023-04-16T04:30:36;101185.97;;;12.71;63.38
51468;BME280;37545;45.302;-122.946;2023-04-16T04:33:04;101194.56;;;12.70;64.45
51468;BME280;37545;45.302;-122.946;2023-04-16T04:35:33;101199.00;;;12.74;65.29
51468;BME280;37545;45.302;-122.946;2023-04-16T04:38:02;101196.34;;;12.73;67.52
51468;BME280;37545;45.302;-122.946;2023-04-16T04:40:32;101202.28;;;12.67;65.44
51468;BME280;37545;45.302;-122.946;2023-04-16T04:43:01;101201.22;;;12.61;66.62
51468;BME280;37545;45.302;-122.946;2023-04-16T04:45:30;101194.97;;;12.54;66.27
51468;BME280;37545;45.302;-122.946;2023-04-16T04:47:58;101188.06;;;12.54;67.71
51468;BME280;37545;45.302;-122.946;2023-04-16T04:50:27;101197.63;;;12.55;69.09
51468;BME280;37545;45.302;-122.946;2023-04-16T04:52:56;101192.31;;;12.52;67.51
51468;BME280;37545;45.302;-122.946;2023-04-16T04:55:24;101184.41;;;12.48;67.58
51468;BME280;37545;45.302;-122.946;2023-04-16T04:57:55;101177.34;;;12.44;68.02
51468;BME280;37545;45.302;-122.946;2023-04-16T05:00:23;101171.97;;;12.36;66.07
51468;BME280;37545;45.302;-122.946;2023-04-16T05:02:52;101177.09;;;12.34;64.87
51468;BME280;37545;45.302;-122.946;2023-04-16T05:05:21;101177.03;;;12.31;64.61
51468;BME280;37545;45.302;-122.946;2023-04-16T05:07:49;101169.19;;;12.30;65.70
51468;BME280;37545;45.302;-122.946;2023-04-16T05:10:18;101152.47;;;12.20;68.73
51468;BME280;37545;45.302;-122.946;2023-04-16T05:12:46;101178.59;;;12.26;68.00
51468;BME280;37545;45.302;-122.946;2023-04-16T05:15:17;101176.75;;;12.22;66.32
51468;BME280;37545;45.302;-122.946;2023-04-16T05:17:45;101174.91;;;12.18;65.14
51468;BME280;37545;45.302;-122.946;2023-04-16T05:20:14;101179.28;;;12.21;66.85
51468;BME280;37545;45.302;-122.946;2023-04-16T05:22:42;101182.00;;;12.24;66.10
51468;BME280;37545;45.302;-122.946;2023-04-16T05:25:11;101179.47;;;12.27;66.05
51468;BME280;37545;45.302;-122.946;2023-04-16T05:27:40;101179.56;;;12.30;66.67
51468;BME280;37545;45.302;-122.946;2023-04-16T05:30:09;101171.84;;;12.31;67.14
51468;BME280;37545;45.302;-122.946;2023-04-16T05:32:40;101171.84;;;12.31;67.33
51468;BME280;37545;45.302;-122.946;2023-04-16T05:35:09;101177.03;;;12.31;66.61
51468;BME280;37545;45.302;-122.946;2023-04-16T05:37:37;101175.28;;;12.30;65.31
51468;BME280;37545;45.302;-122.946;2023-04-16T05:40:07;101164.91;;;12.30;66.12
51468;BME280;37545;45.302;-122.946;2023-04-16T05:42:36;101164.00;;;12.30;68.09
51468;BME280;37545;45.302;-122.946;2023-04-16T05:45:05;101169.84;;;12.23;68.17
51468;BME280;37545;45.302;-122.946;2023-04-16T05:47:34;101169.63;;;12.15;68.76
51468;BME280;37545;45.302;-122.946;2023-04-16T05:50:05;101170.16;;;12.05;72.78
51468;BME280;37545;45.302;-122.946;2023-04-16T05:52:34;101169.06;;;11.97;71.13
51468;BME280;37545;45.302;-122.946;2023-04-16T05:55:02;101167.13;;;11.89;69.41
51468;BME280;37545;45.302;-122.946;2023-04-16T05:57:32;101168.78;;;11.87;69.34
51468;BME280;37545;45.302;-122.946;2023-04-16T06:00:01;101172.88;;;11.81;68.05
51468;BME280;37545;45.302;-122.946;2023-04-16T06:02:30;101174.44;;;11.76;67.49
51468;BME280;37545;45.302;-122.946;2023-04-16T06:04:59;101171.81;;;11.74;66.73
51468;BME280;37545;45.302;-122.946;2023-04-16T06:07:29;101173.38;;;11.69;66.53
51468;BME280;37545;45.302;-122.946;2023-04-16T06:09:57;101169.84;;;11.67;66.37
51468;BME280;37545;45.302;-122.946;2023-04-16T06:12:26;101172.38;;;11.65;66.53
51468;BME280;37545;45.302;-122.946;2023-04-16T06:14:55;101168.03;;;11.64;67.05
51468;BME280;37545;45.302;-122.946;2023-04-16T06:17:23;101160.16;;;11.61;68.96
51468;BME280;37545;45.302;-122.946;2023-04-16T06:19:52;101157.41;;;11.57;70.44
51468;BME280;37545;45.302;-122.946;2023-04-16T06:22:21;101161.63;;;11.53;73.52
51468;BME280;37545;45.302;-122.946;2023-04-16T06:24:52;101158.75;;;11.44;73.23
51468;BME280;37545;45.302;-122.946;2023-04-16T06:27:21;101153.28;;;11.35;74.08
51468;BME280;37545;45.302;-122.946;2023-04-16T06:29:49;101154.78;;;11.28;72.38
51468;BME280;37545;45.302;-122.946;2023-04-16T06:32:18;101153.75;;;11.23;71.50
51468;BME280;37545;45.302;-122.946;2023-04-16T06:34:47;101150.94;;;11.17;70.80
51468;BME280;37545;45.302;-122.946;2023-04-16T06:37:15;101143.50;;;11.00;70.43
51468;BME280;37545;45.302;-122.946;2023-04-16T06:39:44;101148.78;;;11.03;70.72
51468;BME280;37545;45.302;-122.946;2023-04-16T06:42:14;101150.44;;;11.01;72.51
51468;BME280;37545;45.302;-122.946;2023-04-16T06:44:43;101148.53;;;10.96;71.25
51468;BME280;37545;45.302;-122.946;2023-04-16T06:47:11;101143.97;;;10.88;71.45
51468;BME280;37545;45.302;-122.946;2023-04-16T06:49:40;101142.97;;;10.85;72.41
51468;BME280;37545;45.302;-122.946;2023-04-16T06:52:09;101147.19;;;10.81;72.55
51468;BME280;37545;45.302;-122.946;2023-04-16T06:54:38;101149.59;;;10.77;71.61
51468;BME280;37545;45.302;-122.946;2023-04-16T06:57:07;101145.94;;;10.72;72.29
51468;BME280;37545;45.302;-122.946;2023-04-16T06:59:37;101145.75;;;10.65;72.17
51468;BME280;37545;45.302;-122.946;2023-04-16T07:02:06;101142.06;;;10.59;72.02
51468;BME280;37545;45.302;-122.946;2023-04-16T07:04:35;101134.94;;;10.53;74.25
51468;BME280;37545;45.302;-122.946;2023-04-16T07:07:03;101132.97;;;10.46;73.93
51468;BME280;37545;45.302;-122.946;2023-04-16T07:09:32;101125.81;;;10.39;74.84
51468;BME280;37545;45.302;-122.946;2023-04-16T07:12:01;101117.78;;;10.31;75.64
51468;BME280;37545;45.302;-122.946;2023-04-16T07:14:30;101119.94;;;10.20;75.36
51468;BME280;37545;45.302;-122.946;2023-04-16T07:17:00;101116.25;;;10.14;75.50
51468;BME280;37545;45.302;-122.946;2023-04-16T07:19:29;101121.34;;;10.12;74.66
51468;BME280;37545;45.302;-122.946;2023-04-16T07:21:58;101112.69;;;10.10;74.43
51468;BME280;37545;45.302;-122.946;2023-04-16T07:24:26;101107.38;;;10.07;74.46
51468;BME280;37545;45.302;-122.946;2023-04-16T07:26:55;101107.16;;;10.01;75.44
51468;BME280;37545;45.302;-122.946;2023-04-16T07:29:24;101115.97;;;10.06;75.84
51468;BME280;37545;45.302;-122.946;2023-04-16T07:31:52;101120.22;;;10.04;76.66
51468;BME280;37545;45.302;-122.946;2023-04-16T07:34:23;101110.63;;;10.01;75.60
51468;BME280;37545;45.302;-122.946;2023-04-16T07:36:51;101101.97;;;10.01;75.89
51468;BME280;37545;45.302;-122.946;2023-04-16T07:39:20;101113.25;;;10.03;75.48
51468;BME280;37545;45.302;-122.946;2023-04-16T07:41:49;101109.91;;;10.05;74.82
51468;BME280;37545;45.302;-122.946;2023-04-16T07:44:17;101112.47;;;10.05;74.87
51468;BME280;37545;45.302;-122.946;2023-04-16T07:46:46;101103.75;;;10.02;73.60
51468;BME280;37545;45.302;-122.946;2023-04-16T07:49:15;101097.56;;;9.98;74.14
51468;BME280;37545;45.302;-122.946;2023-04-16T07:51:45;101103.66;;;9.99;74.69
51468;BME280;37545;45.302;-122.946;2023-04-16T07:54:14;101098.47;;;9.99;74.08
51468;BME280;37545;45.302;-122.946;2023-04-16T07:56:43;101098.47;;;9.99;73.93
51468;BME280;37545;45.302;-122.946;2023-04-16T07:59:11;101110.66;;;10.03;73.64
51468;BME280;37545;45.302;-122.946;2023-04-16T08:01:40;101110.75;;;10.04;73.97
51468;BME280;37545;45.302;-122.946;2023-04-16T08:04:08;101106.41;;;10.03;74.75
51468;BME280;37545;45.302;-122.946;2023-04-16T08:06:37;101102.88;;;10.01;73.42
51468;BME280;37545;45.302;-122.946;2023-04-16T08:09:07;101107.97;;;10.00;74.39
51468;BME280;37545;45.302;-122.946;2023-04-16T08:11:36;101107.16;;;10.01;74.71
51468;BME280;37545;45.302;-122.946;2023-04-16T08:14:05;101105.41;;;10.00;74.59
51468;BME280;37545;45.302;-122.946;2023-04-16T08:16:33;101101.06;;;9.99;76.33
51468;BME280;37545;45.302;-122.946;2023-04-16T08:19:02;101101.88;;;9.98;76.65
51468;BME280;37545;45.302;-122.946;2023-04-16T08:21:31;101103.50;;;9.96;74.11
51468;BME280;37545;45.302;-122.946;2023-04-16T08:23:59;101100.75;;;9.91;75.42
51468;BME280;37545;45.302;-122.946;2023-04-16T08:26:30;101098.88;;;9.87;75.81
51468;BME280;37545;45.302;-122.946;2023-04-16T08:28:58;101095.38;;;9.85;74.82
51468;BME280;37545;45.302;-122.946;2023-04-16T08:31:27;101078.63;;;9.75;74.46
51468;BME280;37545;45.302;-122.946;2023-04-16T08:33:56;101086.78;;;9.86;73.02
51468;BME280;37545;45.302;-122.946;2023-04-16T08:36:24;101089.44;;;9.88;73.73
51468;BME280;37545;45.302;-122.946;2023-04-16T08:38:53;101083.38;;;9.87;72.91
51468;BME280;37545;45.302;-122.946;2023-04-16T08:41:22;101080.75;;;9.85;73.64
51468;BME280;37545;45.302;-122.946;2023-04-16T08:43:54;101078.16;;;9.85;72.92
51468;BME280;37545;45.302;-122.946;2023-04-16T08:46:24;101084.88;;;9.80;74.61
51468;BME280;37545;45.302;-122.946;2023-04-16T08:48:54;101077.81;;;9.76;75.01
51468;BME280;37545;45.302;-122.946;2023-04-16T08:51:25;101075.09;;;9.73;77.35
51468;BME280;37545;45.302;-122.946;2023-04-16T08:54:01;101070.75;;;9.72;75.02
51468;BME280;37545;45.302;-122.946;2023-04-16T08:56:31;101075.81;;;9.69;73.45
51468;BME280;37545;45.302;-122.946;2023-04-16T08:59:05;101073.97;;;9.67;74.03
51468;BME280;37545;45.302;-122.946;2023-04-16T09:01:34;101082.56;;;9.65;75.62
51468;BME280;37545;45.302;-122.946;2023-04-16T09:04:06;101090.25;;;9.64;74.72
51468;BME280;37545;45.302;-122.946;2023-04-16T09:06:35;101082.31;;;9.59;74.26
51468;BME280;37545;45.302;-122.946;2023-04-16T09:09:08;101079.63;;;9.56;74.15
51468;BME280;37545;45.302;-122.946;2023-04-16T09:11:38;101072.66;;;9.54;72.48
51468;BME280;37545;45.302;-122.946;2023-04-16T09:14:09;101066.59;;;9.53;73.25
51468;BME280;37545;45.302;-122.946;2023-04-16T09:16:39;101065.69;;;9.53;74.25
51468;BME280;37545;45.302;-122.946;2023-04-16T09:19:08;101075.22;;;9.54;72.47
51468;BME280;37545;45.302;-122.946;2023-04-16T09:21:37;101071.78;;;9.53;72.07
51468;BME280;37545;45.302;-122.946;2023-04-16T09:24:07;101052.78;;;9.53;72.15
51468;BME280;37545;45.302;-122.946;2023-04-16T09:26:36;101049.31;;;9.52;72.99
51468;BME280;37545;45.302;-122.946;2023-04-16T09:29:05;101056.03;;;9.47;73.38
51468;BME280;37545;45.302;-122.946;2023-04-16T09:31:36;101049.28;;;9.51;72.52
51468;BME280;37545;45.302;-122.946;2023-04-16T09:34:06;101055.25;;;9.50;72.82
51468;BME280;37545;45.302;-122.946;2023-04-16T09:36:35;101053.50;;;9.49;72.46
51468;BME280;37545;45.302;-122.946;2023-04-16T09:39:04;101052.59;;;9.48;72.70
51468;BME280;37545;45.302;-122.946;2023-04-16T09:41:33;101054.38;;;9.49;73.02
51468;BME280;37545;45.302;-122.946;2023-04-16T09:44:04;101058.69;;;9.49;73.49
51468;BME280;37545;45.302;-122.946;2023-04-16T09:46:36;101052.56;;;9.47;73.94
51468;BME280;37545;45.302;-122.946;2023-04-16T09:49:08;101060.06;;;9.40;73.84
51468;BME280;37545;45.302;-122.946;2023-04-16T09:51:37;101053.91;;;9.37;74.75
51468;BME280;37545;45.302;-122.946;2023-04-16T09:54:06;101041.63;;;9.31;73.52
51468;BME280;37545;45.302;-122.946;2023-04-16T09:56:44;101048.38;;;9.28;74.74
51468;BME280;37545;45.302;-122.946;2023-04-16T09:59:16;101046.63;;;9.27;74.77
51468;BME280;37545;45.302;-122.946;2023-04-16T10:01:47;101044.97;;;9.29;74.43
51468;BME280;37545;45.302;-122.946;2023-04-16T10:04:16;101039.91;;;9.32;73.83
51468;BME280;37545;45.302;-122.946;2023-04-16T10:07:01;101046.97;;;9.36;72.86
51468;BME280;37545;45.302;-122.946;2023-04-16T10:09:32;101042.81;;;9.39;72.96
51468;BME280;37545;45.302;-122.946;2023-04-16T10:12:04;101044.69;;;9.43;74.05
51468;BME280;37545;45.302;-122.946;2023-04-16T10:14:40;101037.00;;;9.45;73.28
51468;BME280;37545;45.302;-122.946;2023-04-16T10:17:10;101033.66;;;9.48;74.64
51468;BME280;37545;45.302;-122.946;2023-04-16T10:19:39;101034.59;;;9.50;74.47
51468;BME280;37545;45.302;-122.946;2023-04-16T10:22:09;101035.59;;;9.53;77.59
51468;BME280;37545;45.302;-122.946;2023-04-16T10:24:40;101039.88;;;9.53;77.02
51468;BME280;37545;45.302;-122.946;2023-04-16T10:27:09;101028.56;;;9.49;75.17
51468;BME280;37545;45.302;-122.946;2023-04-16T10:29:38;101029.44;;;9.50;73.50
51468;BME280;37545;45.302;-122.946;2023-04-16T10:32:09;101026.84;;;9.50;75.83
51468;BME280;37545;45.302;-122.946;2023-04-16T10:34:38;101026.78;;;9.48;78.46
51468;BME280;37545;45.302;-122.946;2023-04-16T10:37:07;101027.53;;;9.46;78.88
51468;BME280;37545;45.302;-122.946;2023-04-16T10:39:36;101023.16;;;9.43;78.34
51468;BME280;37545;45.302;-122.946;2023-04-16T10:42:09;101013.66;;;9.42;79.34
51468;BME280;37545;45.302;-122.946;2023-04-16T10:44:39;101008.41;;;9.40;78.07
51468;BME280;37545;45.302;-122.946;2023-04-16T10:47:13;101008.41;;;9.40;79.91
51468;BME280;37545;45.302;-122.946;2023-04-16T10:49:42;100992.81;;;9.37;79.41
51468;BME280;37545;45.302;-122.946;2023-04-16T10:52:12;100997.97;;;9.37;79.46
51468;BME280;37545;45.302;-122.946;2023-04-16T10:54:42;101006.59;;;9.38;78.57
51468;BME280;37545;45.302;-122.946;2023-04-16T10:57:16;100998.78;;;9.36;78.68
51468;BME280;37545;45.302;-122.946;2023-04-16T10:59:45;100997.84;;;9.34;77.95
51468;BME280;37545;45.302;-122.946;2023-04-16T11:02:17;100996.09;;;9.33;78.49
51468;BME280;37545;45.302;-122.946;2023-04-16T11:04:47;100983.88;;;9.29;79.00
51468;BME280;37545;45.302;-122.946;2023-04-16T11:07:18;100989.03;;;9.29;79.77
51468;BME280;37545;45.302;-122.946;2023-04-16T11:09:51;100986.28;;;9.25;79.11
51468;BME280;37545;45.302;-122.946;2023-04-16T11:12:21;100986.28;;;9.25;78.90
51468;BME280;37545;45.302;-122.946;2023-04-16T11:14:53;100974.84;;;9.18;79.40
51468;BME280;37545;45.302;-122.946;2023-04-16T11:17:35;100976.03;;;9.26;79.38
51468;BME280;37545;45.302;-122.946;2023-04-16T11:20:05;100973.19;;;9.20;79.05
51468;BME280;37545;45.302;-122.946;2023-04-16T11:22:35;100978.38;;;9.20;80.08
51468;BME280;37545;45.302;-122.946;2023-04-16T11:25:04;100971.44;;;9.19;80.66
51468;BME280;37545;45.302;-122.946;2023-04-16T11:27:40;100961.94;;;9.18;82.28
51468;BME280;37545;45.302;-122.946;2023-04-16T11:30:09;100969.47;;;9.12;80.29
51468;BME280;37545;45.302;-122.946;2023-04-16T11:32:40;100971.09;;;9.10;81.53
51468;BME280;37545;45.302;-122.946;2023-04-16T11:35:14;100973.69;;;9.10;81.40
51468;BME280;37545;45.302;-122.946;2023-04-16T11:37:44;100968.38;;;9.07;81.64
51468;BME280;37545;45.302;-122.946;2023-04-16T11:40:13;100972.75;;;9.08;82.67
51468;BME280;37545;45.302;-122.946;2023-04-16T11:42:42;100970.97;;;9.07;82.46
51468;BME280;37545;45.302;-122.946;2023-04-16T11:45:11;100965.78;;;9.07;82.23
51468;BME280;37545;45.302;-122.946;2023-04-16T11:47:46;100967.44;;;9.05;82.79
51468;BME280;37545;45.302;-122.946;2023-04-16T11:50:21;100961.34;;;9.02;83.89
51468;BME280;37545;45.302;-122.946;2023-04-16T11:52:51;100961.28;;;9.01;84.72
51468;BME280;37545;45.302;-122.946;2023-04-16T11:55:20;100951.22;;;8.86;84.51
51468;BME280;37545;45.302;-122.946;2023-04-16T11:57:49;100965.25;;;8.93;84.56
51468;BME280;37545;45.302;-122.946;2023-04-16T12:00:18;100952.44;;;8.94;85.46
51468;BME280;37545;45.302;-122.946;2023-04-16T12:02:51;100948.22;;;8.96;84.90
51468;BME280;37545;45.302;-122.946;2023-04-16T12:05:28;100952.44;;;8.94;85.09
51468;BME280;37545;45.302;-122.946;2023-04-16T12:07:57;100942.03;;;8.93;84.31
51468;BME280;37545;45.302;-122.946;2023-04-16T12:10:26;100956.66;;;8.92;85.64
51468;BME280;37545;45.302;-122.946;2023-04-16T12:13:09;100949.78;;;8.93;85.91
51468;BME280;37545;45.302;-122.946;2023-04-16T12:15:46;100950.69;;;8.93;85.66
51468;BME280;37545;45.302;-122.946;2023-04-16T12:18:18;100947.19;;;8.93;86.24
51468;BME280;37545;45.302;-122.946;2023-04-16T12:20:48;100948.97;;;8.94;85.65
51468;BME280;37545;45.302;-122.946;2023-04-16T12:23:25;100950.72;;;8.95;85.77
51468;BME280;37545;45.302;-122.946;2023-04-16T12:25:54;100943.03;;;8.96;85.57
51468;BME280;37545;45.302;-122.946;2023-04-16T12:28:29;100937.88;;;8.96;86.65
51468;BME280;37545;45.302;-122.946;2023-04-16T12:30:58;100943.03;;;8.96;85.84
51468;BME280;37545;45.302;-122.946;2023-04-16T12:33:28;100937.78;;;8.93;85.87
51468;BME280;37545;45.302;-122.946;2023-04-16T12:35:57;100933.53;;;8.95;86.85